Time;durP1;ratioP1;P1;durP2;ratioP2;P2;SDS_P1;SDS_P2;PMS_P1;PMS_P2;Temp;Humidity;BMP_temperature;BMP_pressure;BME280_temperature;BME280_humidity;BME280_pressure;Samples;Min_cycle;Max_cycle;Signal;HPM_P1;HPM_P2
2021/09/09 00:02:46;;;;;;;19.47;13.93;;;;;;;17.27;66.52;100984.65;4795417;62;21224;-88
2021/09/09 00:07:52;;;;;;;26.50;14.30;;;;;;;17.16;66.71;100980.36;4795671;62;21295;-88
2021/09/09 00:12:59;;;;;;;24.67;13.43;;;;;;;17.15;67.06;100982.20;4795544;62;21187;-88
2021/09/09 00:18:07;;;;;;;21.70;14.00;;;;;;;17.17;67.15;100980.22;4712485;63;21218;-88
2021/09/09 00:23:13;;;;;;;24.37;13.07;;;;;;;17.13;67.02;100971.30;4712121;63;21535;-88
2021/09/09 00:28:20;;;;;;;23.17;12.87;;;;;;;17.05;67.12;100968.55;4731606;62;21130;-88
2021/09/09 00:33:27;;;;;;;16.47;13.13;;;;;;;16.98;67.05;100976.31;4682656;63;21196;-86
2021/09/09 00:38:34;;;;;;;16.93;12.83;;;;;;;16.80;67.14;100974.92;4682511;63;21247;-88
2021/09/09 00:43:40;;;;;;;21.47;13.20;;;;;;;16.63;67.23;100963.72;4694370;63;21130;-87
2021/09/09 00:48:47;;;;;;;21.13;13.47;;;;;;;16.61;67.47;100970.16;4712227;63;21265;-88
2021/09/09 00:53:53;;;;;;;21.20;12.80;;;;;;;16.68;67.92;100959.24;4712325;62;21224;-89
2021/09/09 00:58:59;;;;;;;26.73;14.33;;;;;;;16.70;67.92;100960.78;4712898;63;21567;-87
2021/09/09 01:04:05;;;;;;;20.13;12.63;;;;;;;16.72;68.39;100964.16;4713416;63;21224;-87
2021/09/09 01:09:11;;;;;;;19.67;14.10;;;;;;;16.73;68.34;100952.48;4712766;63;21185;-87
2021/09/09 01:14:19;;;;;;;22.67;14.37;;;;;;;16.58;68.22;100953.92;4712616;63;21242;-88
2021/09/09 01:19:25;;;;;;;18.77;14.07;;;;;;;16.56;68.65;100958.56;4712488;63;21133;-88
2021/09/09 01:24:31;;;;;;;20.57;13.03;;;;;;;16.43;68.14;100962.91;4712365;63;21145;-85
2021/09/09 01:29:41;;;;;;;24.80;13.00;;;;;;;16.32;68.16;100960.92;4712688;63;21197;-88
2021/09/09 01:34:47;;;;;;;21.20;13.27;;;;;;;16.30;68.43;100958.87;4712725;63;21575;-88
2021/09/09 01:39:55;;;;;;;25.97;15.37;;;;;;;16.19;68.40;100954.56;4712764;63;21574;-88
2021/09/09 01:45:00;;;;;;;20.23;11.50;;;;;;;16.13;68.92;100952.46;4740047;62;21131;-88
2021/09/09 01:50:07;;;;;;;21.07;14.27;;;;;;;16.10;68.92;100950.08;4735899;62;21566;-86
2021/09/09 01:55:12;;;;;;;28.73;13.77;;;;;;;16.05;69.12;100947.83;4703311;63;21547;-85
2021/09/09 02:00:19;;;;;;;28.93;13.27;;;;;;;16.04;69.27;100949.33;4724652;63;21209;-86
2021/09/09 02:05:24;;;;;;;23.80;14.17;;;;;;;15.95;69.02;100942.17;4724646;63;21556;-86
2021/09/09 02:10:30;;;;;;;18.47;12.43;;;;;;;15.88;69.03;100950.41;4724468;63;21213;-86
2021/09/09 02:15:37;;;;;;;26.50;13.83;;;;;;;15.82;68.96;100947.81;4724543;63;21206;-87
2021/09/09 02:20:42;;;;;;;19.33;11.47;;;;;;;15.63;68.97;100939.33;4724439;63;21201;-88
2021/09/09 02:25:49;;;;;;;23.00;13.30;;;;;;;15.52;69.23;100942.12;4724419;63;21293;-87
2021/09/09 02:30:55;;;;;;;21.87;12.17;;;;;;;15.42;69.43;100937.28;4724825;63;21206;-88
2021/09/09 02:36:01;;;;;;;17.50;12.57;;;;;;;15.28;69.66;100939.00;4725172;63;21205;-87
2021/09/09 02:41:07;;;;;;;18.00;12.60;;;;;;;15.25;70.24;100929.48;4724537;63;21255;-89
2021/09/09 02:46:13;;;;;;;29.00;13.17;;;;;;;15.25;70.07;100929.98;4727885;62;21189;-86
2021/09/09 02:51:19;;;;;;;28.50;14.07;;;;;;;15.27;70.33;100925.36;4727023;62;21623;-86
2021/09/09 02:56:24;;;;;;;25.00;12.60;;;;;;;15.32;70.62;100926.60;4757496;62;21189;-87
2021/09/09 03:01:31;;;;;;;22.60;13.37;;;;;;;15.42;70.71;100911.97;4757551;62;21138;-88
2021/09/09 03:06:37;;;;;;;16.93;12.30;;;;;;;15.48;70.49;100914.89;4757611;62;21192;-86
2021/09/09 03:11:43;;;;;;;19.53;11.47;;;;;;;15.49;70.29;100911.24;4757394;62;21133;-86
2021/09/09 03:16:48;;;;;;;20.70;12.53;;;;;;;15.39;69.93;100916.23;4757608;62;21598;-86
2021/09/09 03:21:54;;;;;;;25.77;14.47;;;;;;;15.34;70.20;100918.47;4757612;62;21201;-86
2021/09/09 03:27:00;;;;;;;19.27;13.17;;;;;;;15.34;70.43;100915.31;4757580;62;21130;-86
2021/09/09 03:32:06;;;;;;;19.90;13.67;;;;;;;15.40;70.39;100912.59;4757525;62;21265;-86
2021/09/09 03:37:12;;;;;;;23.10;14.40;;;;;;;15.47;70.42;100910.54;4757589;62;21193;-87
2021/09/09 03:42:18;;;;;;;34.50;15.07;;;;;;;15.57;70.44;100908.41;4742515;62;21276;-88
2021/09/09 03:47:24;;;;;;;42.00;15.97;;;;;;;15.62;70.27;100908.31;4752258;62;22330;-89
2021/09/09 03:52:30;;;;;;;24.77;14.10;;;;;;;15.58;69.93;100904.77;4753079;61;21301;-87
2021/09/09 03:57:36;;;;;;;27.83;16.57;;;;;;;15.46;69.69;100906.67;4764478;61;21199;-87
2021/09/09 04:02:42;;;;;;;38.67;13.90;;;;;;;15.37;69.98;100900.38;4871412;61;22092;-87
2021/09/09 04:07:48;;;;;;;31.40;15.43;;;;;;;15.30;70.04;100901.91;4872897;61;21119;-87
2021/09/09 04:12:54;;;;;;;34.10;14.17;;;;;;;15.18;69.93;100902.19;4871574;61;21186;-88
2021/09/09 04:18:00;;;;;;;36.27;15.00;;;;;;;15.07;70.15;100900.02;4872558;61;21742;-88
2021/09/09 04:23:06;;;;;;;38.10;15.33;;;;;;;15.08;70.42;100895.53;4864552;60;21107;-87
2021/09/09 04:28:13;;;;;;;40.50;17.07;;;;;;;15.06;70.69;100897.48;4867516;61;21114;-88
2021/09/09 04:33:19;;;;;;;41.90;15.03;;;;;;;15.09;70.94;100895.39;4871561;61;21208;-87
2021/09/09 04:38:27;;;;;;;42.57;15.23;;;;;;;15.08;70.72;100895.05;4871405;61;21175;-85
2021/09/09 04:43:34;;;;;;;36.67;15.63;;;;;;;14.98;70.58;100898.66;4844017;60;21931;-84
2021/09/09 04:48:40;;;;;;;64.67;18.03;;;;;;;14.92;71.04;100887.23;4873804;60;21533;-84
2021/09/09 04:53:46;;;;;;;36.17;15.73;;;;;;;14.99;71.16;100887.02;4871280;60;21182;-86
2021/09/09 04:58:51;;;;;;;31.33;15.20;;;;;;;15.08;71.20;100877.73;4872529;61;21198;-86
2021/09/09 05:03:57;;;;;;;23.20;14.17;;;;;;;15.17;71.29;100875.19;4872483;61;21257;-85
2021/09/09 05:09:02;;;;;;;26.90;14.30;;;;;;;15.23;71.36;100870.16;4872393;61;21182;-84
2021/09/09 05:14:08;;;;;;;30.87;14.57;;;;;;;15.29;71.26;100866.91;4872284;61;21238;-85
2021/09/09 05:19:14;;;;;;;21.33;12.63;;;;;;;15.32;71.24;100862.64;4872526;61;21130;-85
2021/09/09 05:24:20;;;;;;;28.80;14.20;;;;;;;15.34;71.26;100852.69;4872463;61;22174;-84
2021/09/09 05:29:26;;;;;;;21.43;13.50;;;;;;;15.39;71.34;100858.93;4872547;61;21123;-88
2021/09/09 05:34:32;;;;;;;20.83;14.70;;;;;;;15.48;71.32;100859.40;4873716;61;21584;-87
2021/09/09 05:39:37;;;;;;;23.60;13.17;;;;;;;15.57;71.51;100857.27;4903706;60;21243;-88
2021/09/09 05:44:43;;;;;;;18.40;12.73;;;;;;;15.70;71.79;100852.47;4904792;60;21534;-86
2021/09/09 05:49:50;;;;;;;18.40;12.50;;;;;;;15.85;71.80;100854.17;4874937;61;21126;-86
2021/09/09 05:54:56;;;;;;;27.77;11.33;;;;;;;16.03;71.58;100851.60;4869888;60;21216;-85
2021/09/09 06:00:02;;;;;;;17.03;12.17;;;;;;;16.19;71.62;100845.95;4862100;61;21256;-85
2021/09/09 06:05:08;;;;;;;24.37;11.23;;;;;;;16.34;71.15;100845.00;4862056;61;21691;-86
2021/09/09 06:10:14;;;;;;;19.90;11.60;;;;;;;16.59;71.09;100846.61;4862076;61;21217;-85
2021/09/09 06:15:20;;;;;;;20.73;11.57;;;;;;;16.81;70.08;100836.86;4853312;61;21157;-85
2021/09/09 06:20:26;;;;;;;17.60;11.30;;;;;;;16.99;69.88;100830.19;4852815;61;22437;-86
2021/09/09 06:25:32;;;;;;;21.90;10.90;;;;;;;17.16;69.00;100827.52;4852824;61;21288;-86
2021/09/09 06:30:37;;;;;;;17.33;10.93;;;;;;;17.28;68.37;100826.77;4852742;61;21757;-86
2021/09/09 06:35:45;;;;;;;17.47;9.93;;;;;;;17.44;68.52;100812.19;4853023;61;21231;-86
2021/09/09 06:40:51;;;;;;;24.73;10.80;;;;;;;17.68;68.48;100817.42;4883063;60;21221;-86
2021/09/09 06:45:56;;;;;;;18.10;10.63;;;;;;;17.90;67.76;100815.03;4859641;60;21797;-88
2021/09/09 06:51:02;;;;;;;17.03;10.07;;;;;;;18.10;66.66;100817.47;4852588;61;21165;-87
2021/09/09 06:56:08;;;;;;;21.57;10.63;;;;;;;18.25;66.30;100816.70;4850765;60;21656;-87
2021/09/09 07:01:13;;;;;;;13.43;10.27;;;;;;;18.40;66.07;100815.59;4657301;63;21839;-85
2021/09/09 07:06:19;;;;;;;16.10;10.97;;;;;;;18.59;65.79;100815.35;4638740;63;21295;-87
2021/09/09 07:11:25;;;;;;;13.37;10.10;;;;;;;18.81;65.96;100810.35;4658202;63;21277;-85
2021/09/09 07:16:31;;;;;;;16.60;9.23;;;;;;;19.06;64.97;100812.08;4646199;63;21772;-85
2021/09/09 07:21:37;;;;;;;13.67;9.07;;;;;;;19.31;64.66;100805.70;4638859;63;21250;-87
2021/09/09 07:26:42;;;;;;;13.87;9.17;;;;;;;19.55;64.14;100804.05;4638920;63;21219;-86
2021/09/09 07:31:48;;;;;;;25.70;9.60;;;;;;;19.81;64.15;100804.66;4652487;62;21280;-85
2021/09/09 07:36:56;;;;;;;20.60;9.05;;;;;;;20.13;64.30;100793.48;4638626;63;21207;-85
2021/09/09 07:42:02;;;;;;;27.20;15.28;;;;;;;20.40;63.81;100794.38;4647215;62;21213;-86
2021/09/09 07:47:08;;;;;;;18.40;9.60;;;;;;;20.75;63.85;100794.34;4605313;64;21217;-86
2021/09/09 07:52:14;;;;;;;13.80;7.30;;;;;;;21.00;61.55;100793.66;4563747;65;21233;-85
2021/09/09 07:57:20;;;;;;;21.37;8.20;;;;;;;21.24;61.67;100792.13;4564304;64;21225;-85
2021/09/09 08:02:27;;;;;;;13.58;8.60;;;;;;;21.45;59.46;100805.41;4724166;62;21649;-87
2021/09/09 08:07:34;;;;;;;14.73;7.33;;;;;;;21.60;58.26;100814.34;4721753;62;21457;-88
2021/09/09 08:12:39;;;;;;;19.40;9.20;;;;;;;21.74;58.11;100829.67;4716171;62;21223;-84
2021/09/09 08:17:46;;;;;;;12.65;7.58;;;;;;;21.89;57.98;100826.99;4724388;62;21200;-82
2021/09/09 08:22:51;;;;;;;13.03;7.05;;;;;;;21.97;54.82;100825.06;4723453;62;21209;-80
2021/09/09 08:27:57;;;;;;;12.28;6.90;;;;;;;22.06;55.19;100825.31;4723776;62;21302;-80
2021/09/09 08:33:03;;;;;;;16.30;6.95;;;;;;;22.21;55.20;100817.73;4727097;62;22084;-83
2021/09/09 08:38:08;;;;;;;8.90;6.67;;;;;;;22.31;53.31;100816.41;4738825;61;21165;-79
2021/09/09 08:43:14;;;;;;;12.30;6.65;;;;;;;22.44;53.92;100807.16;4732971;61;21278;-82
2021/09/09 08:48:21;;;;;;;18.07;6.22;;;;;;;22.61;53.86;100806.95;4732460;62;21673;-82
2021/09/09 08:53:28;;;;;;;14.28;5.20;;;;;;;22.79;52.02;100800.10;4733167;62;21204;-81
2021/09/09 08:58:36;;;;;;;17.40;6.28;;;;;;;22.92;50.17;100798.56;4714124;62;21202;-80
2021/09/09 09:04:06;;;;;;;12.75;4.72;;;;;;;23.15;49.53;100783.86;4705359;63;21184;-77
2021/09/09 09:09:08;;;;;;;19.70;5.22;;;;;;;23.35;49.42;100775.94;4704837;63;21791;-79
2021/09/09 09:14:25;;;;;;;8.45;5.15;;;;;;;23.57;48.90;100772.68;4701088;63;21299;-74
2021/09/09 09:19:41;;;;;;;7.00;4.22;;;;;;;23.73;46.28;100772.89;4704679;63;21574;-85
2021/09/09 09:24:50;;;;;;;13.32;4.60;;;;;;;23.93;47.22;100757.63;4705683;63;21180;-79
2021/09/09 09:30:11;;;;;;;12.03;4.58;;;;;;;24.05;46.26;100756.54;4705443;63;22102;-81
2021/09/09 09:35:20;;;;;;;10.13;4.50;;;;;;;24.28;46.45;100749.51;4705165;63;21838;-80
2021/09/09 09:40:30;;;;;;;7.78;4.95;;;;;;;24.48;45.53;100749.03;4713703;62;21186;-77
2021/09/09 09:45:37;;;;;;;7.55;3.98;;;;;;;24.68;44.83;100745.02;4705180;63;21216;-80
2021/09/09 09:50:43;;;;;;;11.70;4.62;;;;;;;24.84;41.25;100735.99;4705792;63;21201;-87
2021/09/09 09:55:50;;;;;;;9.25;3.87;;;;;;;24.89;42.01;100743.50;4705916;61;21185;-88
2021/09/09 10:00:57;;;;;;;12.05;5.17;;;;;;;24.99;40.79;100743.95;4705564;63;21192;-86
2021/09/09 10:06:03;;;;;;;13.03;4.80;;;;;;;25.05;39.17;100742.30;4705803;63;21684;-85
2021/09/09 10:11:09;;;;;;;13.13;5.15;;;;;;;25.08;40.87;100733.21;4705694;63;21121;-86
2021/09/09 10:16:16;;;;;;;6.05;4.78;;;;;;;25.21;41.64;100716.13;4706036;63;21222;-86
2021/09/09 10:21:45;;;;;;;6.55;4.25;;;;;;;25.29;39.56;100731.34;4705531;63;21192;-86
2021/09/09 10:26:51;;;;;;;13.13;4.60;;;;;;;25.35;39.16;100719.67;4701262;63;21212;-86
2021/09/09 10:31:56;;;;;;;7.78;4.08;;;;;;;25.37;39.22;100719.75;4705869;63;21188;-86
2021/09/09 10:37:03;;;;;;;7.45;4.33;;;;;;;25.46;38.32;100710.38;4705964;63;21278;-87
2021/09/09 10:42:40;;;;;;;6.37;4.42;;;;;;;25.56;39.10;100701.28;4706071;62;21176;-88
2021/09/09 10:47:52;;;;;;;11.63;3.45;;;;;;;25.67;38.21;100710.66;4706033;63;21630;-88
2021/09/09 10:53:07;;;;;;;3.92;3.60;;;;;;;25.82;37.65;100712.58;4706401;63;21754;-87
2021/09/09 10:58:28;;;;;;;5.60;3.87;;;;;;;25.98;37.84;100697.72;4706261;61;21173;-89
2021/09/09 11:03:50;;;;;;;5.90;3.45;;;;;;;26.05;36.02;100686.86;4706625;63;21167;-88
2021/09/09 11:09:00;;;;;;;7.45;3.98;;;;;;;26.13;35.81;100680.66;4728686;62;21187;-86
2021/09/09 11:14:08;;;;;;;16.65;4.12;;;;;;;26.21;37.13;100679.06;4677289;63;21180;-84
2021/09/09 11:19:17;;;;;;;4.85;3.60;;;;;;;26.37;36.03;100674.20;4704964;63;21201;-84
2021/09/09 11:24:23;;;;;;;8.90;2.62;;;;;;;26.53;37.28;100670.96;4705154;63;21229;-83
2021/09/09 11:29:29;;;;;;;3.10;2.27;;;;;;;26.72;35.14;100662.38;4705615;63;21216;-83
2021/09/09 11:34:35;;;;;;;6.72;3.40;;;;;;;26.80;34.14;100672.41;4705738;63;21632;-87
2021/09/09 11:39:40;;;;;;;11.05;3.10;;;;;;;26.90;34.80;100667.83;4706853;62;22134;-87
2021/09/09 11:44:50;;;;;;;11.10;3.83;;;;;;;26.96;34.67;100652.89;4705436;62;21204;-85
2021/09/09 11:50:04;;;;;;;10.58;3.45;;;;;;;26.85;33.39;100660.91;4676613;63;21182;-85
2021/09/09 11:55:19;;;;;;;4.95;3.17;;;;;;;26.89;34.44;100657.50;4703585;63;21693;-85
2021/09/09 12:00:21;;;;;;;8.53;3.35;;;;;;;27.06;35.55;100658.32;4679805;61;21224;-88
2021/09/09 12:05:27;;;;;;;5.92;2.95;;;;;;;27.11;34.33;100649.83;4641676;63;21173;-86
2021/09/09 12:10:33;;;;;;;14.58;3.55;;;;;;;27.12;34.00;100655.55;4668749;63;21200;-88
2021/09/09 12:15:38;;;;;;;10.90;3.90;;;;;;;27.06;33.90;100640.15;4672163;62;21200;-87
2021/09/09 12:20:44;;;;;;;7.28;3.67;;;;;;;27.10;34.76;100644.61;4670604;62;21176;-89
2021/09/09 12:25:50;;;;;;;18.70;3.90;;;;;;;27.06;33.81;100639.31;4668481;63;22152;-85
2021/09/09 12:31:00;;;;;;;6.92;3.70;;;;;;;27.11;35.28;100638.13;4668938;62;21608;-85
2021/09/09 12:36:14;;;;;;;9.48;3.37;;;;;;;27.10;33.97;100628.33;4661764;63;21224;-84
2021/09/09 12:41:27;;;;;;;12.07;3.23;;;;;;;27.13;34.00;100628.71;4654529;63;21558;-83
2021/09/09 12:46:36;;;;;;;16.02;3.90;;;;;;;27.24;34.81;100633.91;4659495;63;21224;-86
2021/09/09 12:51:48;;;;;;;8.75;3.72;;;;;;;27.37;34.22;100620.71;4660519;63;21181;-76
2021/09/09 12:56:59;;;;;;;8.05;3.50;;;;;;;27.28;34.11;100628.34;4669179;63;22225;-75
2021/09/09 13:02:06;;;;;;;8.35;3.70;;;;;;;27.26;34.36;100615.52;4704470;63;21677;-76
2021/09/09 13:07:12;;;;;;;9.43;3.05;;;;;;;27.35;34.73;100604.64;4705705;63;21180;-76
2021/09/09 13:12:17;;;;;;;11.73;4.03;;;;;;;27.50;33.90;100608.36;4732098;62;21181;-82
2021/09/09 13:17:23;;;;;;;6.17;3.35;;;;;;;27.45;33.70;100600.05;4750592;62;21601;-75
2021/09/09 13:22:30;;;;;;;9.43;3.58;;;;;;;27.48;34.17;100604.51;4709811;63;21696;-76
2021/09/09 13:27:35;;;;;;;8.95;4.72;;;;;;;27.62;32.81;100603.84;4709825;63;21192;-76
2021/09/09 13:32:40;;;;;;;9.73;3.30;;;;;;;27.73;33.60;100600.88;4709682;63;21136;-77
2021/09/09 13:37:46;;;;;;;9.25;2.65;;;;;;;27.82;33.36;100585.89;4709871;63;21205;-75
2021/09/09 13:42:52;;;;;;;10.60;3.10;;;;;;;27.79;32.52;100584.48;4709982;63;21508;-76
2021/09/09 13:47:58;;;;;;;14.68;6.25;;;;;;;27.65;31.44;100583.81;4709867;62;21170;-76
2021/09/09 13:53:04;;;;;;;10.55;3.50;;;;;;;27.75;32.35;100572.94;4709707;63;21242;-77
2021/09/09 13:58:10;;;;;;;4.30;2.90;;;;;;;27.85;33.01;100579.47;4709825;62;21332;-77
2021/09/09 14:03:16;;;;;;;9.25;4.10;;;;;;;27.89;31.87;100582.56;4701453;63;21690;-77
2021/09/09 14:08:22;;;;;;;9.05;3.47;;;;;;;27.88;32.23;100583.63;4700454;63;21206;-76
2021/09/09 14:13:27;;;;;;;4.87;3.10;;;;;;;27.94;32.44;100574.55;4702194;63;21218;-76
2021/09/09 14:18:33;;;;;;;4.90;3.42;;;;;;;27.96;31.54;100571.88;4709314;63;21139;-76
2021/09/09 14:23:38;;;;;;;6.60;3.77;;;;;;;27.90;31.99;100578.26;4631030;64;21133;-78
2021/09/09 14:28:44;;;;;;;16.65;3.62;;;;;;;27.88;31.64;100574.11;4630730;64;21254;-76
2021/09/09 14:33:50;;;;;;;4.50;3.60;;;;;;;27.91;31.95;100567.69;4695645;63;21608;-85
2021/09/09 14:38:55;;;;;;;11.95;3.60;;;;;;;27.91;31.75;100555.45;4701435;63;21198;-86
2021/09/09 14:44:01;;;;;;;8.15;3.35;;;;;;;27.94;31.72;100559.08;4650232;63;21213;-85
2021/09/09 14:49:07;;;;;;;10.60;3.37;;;;;;;27.88;31.74;100548.28;4670110;63;21203;-88
2021/09/09 14:54:12;;;;;;;12.00;3.55;;;;;;;27.91;32.63;100551.91;4715910;62;21214;-87
2021/09/09 14:59:19;;;;;;;6.17;3.67;;;;;;;27.98;31.53;100555.34;4694947;63;21141;-86
2021/09/09 15:04:25;;;;;;;18.00;3.35;;;;;;;27.92;31.59;100551.67;4672094;63;21588;-87
2021/09/09 15:09:32;;;;;;;9.23;3.50;;;;;;;27.85;31.17;100547.38;4672573;63;21186;-87
2021/09/09 15:14:38;;;;;;;14.28;3.75;;;;;;;27.86;32.04;100547.68;4672557;63;21282;-87
2021/09/09 15:19:43;;;;;;;12.58;3.58;;;;;;;27.82;32.10;100536.97;4672713;63;21214;-87
2021/09/09 15:24:49;;;;;;;12.25;3.62;;;;;;;27.84;31.60;100542.47;4672661;63;21209;-85
2021/09/09 15:29:54;;;;;;;7.67;3.00;;;;;;;27.83;32.08;100537.27;4672527;63;21137;-85
2021/09/09 15:35:00;;;;;;;10.75;3.05;;;;;;;27.84;32.12;100525.33;4672639;63;22251;-85
2021/09/09 15:40:07;;;;;;;14.43;3.92;;;;;;;27.89;32.31;100522.76;4672555;63;21228;-85
2021/09/09 15:45:13;;;;;;;10.82;2.77;;;;;;;27.94;33.33;100520.18;4672561;63;21189;-85
2021/09/09 15:50:20;;;;;;;5.50;3.30;;;;;;;27.98;33.21;100511.30;4672981;63;21200;-89
2021/09/09 15:55:27;;;;;;;10.10;3.52;;;;;;;27.94;32.70;100503.88;4672955;63;21181;-86
2021/09/09 16:00:33;;;;;;;7.25;3.65;;;;;;;27.85;32.78;100502.53;4684521;61;21203;-85
2021/09/09 16:05:39;;;;;;;7.12;3.60;;;;;;;27.74;32.82;100507.41;4731704;62;21244;-85
2021/09/09 16:10:46;;;;;;;8.85;3.92;;;;;;;27.66;32.85;100501.76;4728785;62;21552;-86
2021/09/09 16:15:51;;;;;;;5.85;4.00;;;;;;;27.65;33.78;100496.05;4709564;63;21211;-87
2021/09/09 16:20:57;;;;;;;13.22;3.08;;;;;;;27.71;33.79;100496.47;4709513;63;21188;-86
2021/09/09 16:26:03;;;;;;;12.63;4.08;;;;;;;27.76;34.15;100497.14;4709399;63;21538;-86
2021/09/09 16:31:12;;;;;;;11.15;3.95;;;;;;;27.74;33.93;100491.10;4709467;63;22088;-82
2021/09/09 16:36:16;;;;;;;9.45;6.58;;;;;;;27.64;34.00;100486.23;4709493;63;22159;-81
2021/09/09 16:41:22;;;;;;;9.28;4.97;;;;;;;27.56;34.69;100486.52;4709730;63;21759;-81
2021/09/09 16:46:29;;;;;;;62.93;17.10;;;;;;;27.51;35.05;100481.77;4709631;63;21698;-80
2021/09/09 16:51:35;;;;;;;26.30;15.65;;;;;;;27.45;35.35;100479.99;4709683;63;21192;-82
2021/09/09 16:56:41;;;;;;;25.97;11.53;;;;;;;27.29;35.44;100479.27;4709308;63;21276;-84
2021/09/09 17:01:49;;;;;;;34.20;11.18;;;;;;;27.08;35.42;100475.67;4692655;62;21186;-82
2021/09/09 17:06:55;;;;;;;7.67;4.65;;;;;;;26.84;35.93;100482.30;4672327;63;21130;-83
2021/09/09 17:12:01;;;;;;;29.95;7.58;;;;;;;26.60;36.64;100492.14;4660368;63;21249;-84
2021/09/09 17:17:06;;;;;;;30.15;8.95;;;;;;;26.40;37.18;100484.75;4671839;63;21249;-87
2021/09/09 17:22:13;;;;;;;30.30;12.75;;;;;;;26.18;37.79;100492.94;4673447;63;21137;-86
2021/09/09 17:27:18;;;;;;;43.63;9.95;;;;;;;26.04;38.59;100489.51;4681965;63;21225;-84
2021/09/09 17:32:24;;;;;;;33.58;9.35;;;;;;;25.84;39.06;100487.47;4672212;63;21252;-84
2021/09/09 17:37:30;;;;;;;42.75;9.83;;;;;;;25.64;39.34;100490.85;4677998;63;21169;-86
2021/09/09 17:42:37;;;;;;;43.02;10.82;;;;;;;25.46;39.97;100497.80;4674679;63;21172;-83
2021/09/09 17:47:42;;;;;;;61.73;17.27;;;;;;;25.32;40.58;100503.50;4670588;63;21188;-84
2021/09/09 17:52:48;;;;;;;67.22;19.42;;;;;;;25.18;41.34;100502.20;4675950;63;21204;-82
2021/09/09 17:57:54;;;;;;;48.65;15.80;;;;;;;25.06;41.84;100507.12;4686230;63;21166;-86
2021/09/09 18:03:00;;;;;;;34.80;11.50;;;;;;;24.92;42.24;100509.53;4718910;61;21176;-85
2021/09/09 18:08:06;;;;;;;35.03;10.53;;;;;;;24.73;42.78;100504.50;4738051;62;21185;-82
2021/09/09 18:13:12;;;;;;;22.62;6.92;;;;;;;24.51;43.60;100509.31;4741226;62;21200;-84
2021/09/09 18:18:18;;;;;;;12.28;5.58;;;;;;;24.26;44.25;100505.60;4735659;62;21199;-85
2021/09/09 18:23:24;;;;;;;15.10;6.00;;;;;;;23.95;44.92;100511.06;4734595;62;21163;-85
2021/09/09 18:28:30;;;;;;;26.65;6.50;;;;;;;23.75;45.60;100513.73;4737909;62;21133;-85
2021/09/09 18:33:35;;;;;;;65.83;9.53;;;;;;;23.53;46.02;100506.01;4737324;62;21508;-82
2021/09/09 18:38:43;;;;;;;93.22;11.28;;;;;;;23.28;46.42;100514.59;4737384;62;21145;-81
2021/09/09 18:43:48;;;;;;;78.15;9.75;;;;;;;23.05;46.85;100516.79;4735101;62;21530;-83
2021/09/09 18:48:54;;;;;;;84.60;10.55;;;;;;;22.91;47.53;100511.84;4732135;62;21562;-81
2021/09/09 18:54:00;;;;;;;39.38;6.90;;;;;;;22.84;48.08;100515.01;4733159;62;21136;-83
2021/09/09 18:59:06;;;;;;;36.83;6.72;;;;;;;22.80;48.36;100518.61;4733276;62;21195;-83
2021/09/09 19:04:12;;;;;;;45.52;6.50;;;;;;;22.65;48.52;100521.91;4687228;62;21226;-84
2021/09/09 19:09:18;;;;;;;25.05;6.55;;;;;;;22.55;49.17;100528.69;4668322;63;21684;-82
2021/09/09 19:14:24;;;;;;;18.75;5.92;;;;;;;22.50;49.53;100534.66;4670421;63;21786;-82
2021/09/09 19:19:30;;;;;;;34.70;9.98;;;;;;;22.32;49.58;100536.48;4672627;63;21207;-85
2021/09/09 19:24:36;;;;;;;29.05;8.18;;;;;;;22.09;49.87;100535.37;4672632;63;21185;-84
2021/09/09 19:29:42;;;;;;;58.25;16.15;;;;;;;21.74;50.33;100536.22;4672636;63;21129;-81
2021/09/09 19:34:47;;;;;;;46.25;13.93;;;;;;;21.60;51.08;100533.06;4672572;63;21297;-79
2021/09/09 19:39:55;;;;;;;22.45;6.28;;;;;;;21.56;51.55;100533.95;4672421;63;21650;-79
2021/09/09 19:45:01;;;;;;;43.50;7.28;;;;;;;21.41;51.35;100533.16;4670199;63;21133;-80
2021/09/09 19:50:08;;;;;;;43.25;7.72;;;;;;;21.22;51.70;100530.56;4668913;63;21250;-80
2021/09/09 19:55:14;;;;;;;34.60;7.08;;;;;;;21.10;51.89;100537.38;4668926;63;21134;-80
2021/09/09 20:00:20;;;;;;;45.40;7.78;;;;;;;20.92;51.92;100526.20;4668960;63;21185;-80
2021/09/09 20:05:26;;;;;;;42.95;7.85;;;;;;;20.87;52.49;100532.63;4670441;61;21182;-80
2021/09/09 20:10:32;;;;;;;45.98;7.00;;;;;;;20.84;52.58;100532.48;4672324;63;21209;-79
2021/09/09 20:15:37;;;;;;;50.17;7.70;;;;;;;20.68;52.40;100534.84;4671801;63;21122;-82
2021/09/09 20:20:43;;;;;;;41.73;7.42;;;;;;;20.46;52.47;100539.78;4680490;63;21189;-81
2021/09/09 20:25:49;;;;;;;39.95;8.13;;;;;;;20.41;53.05;100541.34;4673410;63;21189;-84
2021/09/09 20:30:56;;;;;;;19.77;6.17;;;;;;;20.23;53.02;100546.49;4671586;63;21632;-81
2021/09/09 20:36:02;;;;;;;24.60;6.62;;;;;;;20.15;53.39;100548.42;4671003;63;21200;-78
2021/09/09 20:41:10;;;;;;;28.92;6.72;;;;;;;19.87;53.35;100549.44;4671361;63;21598;-80
2021/09/09 20:46:15;;;;;;;15.58;5.83;;;;;;;19.64;53.91;100549.44;4668171;63;21245;-83
2021/09/09 20:51:21;;;;;;;18.60;8.48;;;;;;;19.59;54.63;100547.28;4668025;63;21201;-80
2021/09/09 20:56:27;;;;;;;16.17;6.20;;;;;;;19.64;55.21;100546.76;4666456;63;21299;-79
2021/09/09 21:01:33;;;;;;;15.63;6.60;;;;;;;19.66;55.18;100544.23;4668024;63;21520;-81
2021/09/09 21:06:38;;;;;;;12.37;5.80;;;;;;;19.61;54.98;100541.73;4668589;62;21253;-82
2021/09/09 21:11:44;;;;;;;13.38;6.22;;;;;;;19.50;55.03;100545.66;4668586;63;21579;-80
2021/09/09 21:16:49;;;;;;;18.07;6.17;;;;;;;19.38;55.12;100547.05;4669325;63;21248;-81
2021/09/09 21:21:55;;;;;;;25.35;6.50;;;;;;;19.27;55.36;100548.75;4669179;63;21298;-84
2021/09/09 21:27:01;;;;;;;22.48;6.55;;;;;;;19.19;55.43;100556.84;4669137;63;21248;-81
2021/09/09 21:32:07;;;;;;;16.50;6.53;;;;;;;19.21;55.88;100557.51;4669233;63;21215;-81
2021/09/09 21:37:13;;;;;;;15.53;6.35;;;;;;;19.22;55.81;100551.97;4669151;63;21632;-78
2021/09/09 21:42:19;;;;;;;14.23;6.53;;;;;;;19.06;55.47;100553.88;4669182;63;21217;-79
2021/09/09 21:47:25;;;;;;;14.38;6.55;;;;;;;18.98;55.79;100551.55;4668901;63;22122;-83
2021/09/09 21:52:31;;;;;;;20.50;6.42;;;;;;;18.96;56.13;100552.72;4668395;63;21225;-82
2021/09/09 21:57:36;;;;;;;10.68;6.03;;;;;;;18.97;56.21;100558.41;4669162;63;21226;-79
2021/09/09 22:02:42;;;;;;;15.72;8.03;;;;;;;18.95;56.23;100558.58;4668853;63;21209;-81
2021/09/09 22:07:48;;;;;;;17.02;7.28;;;;;;;18.90;56.46;100555.60;4666346;63;21650;-79
2021/09/09 22:12:55;;;;;;;14.87;7.20;;;;;;;18.87;56.58;100556.44;4666742;63;21189;-79
2021/09/09 22:18:00;;;;;;;14.75;8.20;;;;;;;18.78;56.63;100563.68;4667075;63;21596;-81
2021/09/09 22:23:06;;;;;;;21.27;9.00;;;;;;;18.72;56.66;100568.87;4666831;63;21127;-81
2021/09/09 22:28:12;;;;;;;15.43;9.08;;;;;;;18.69;57.06;100566.02;4677643;63;21604;-79
2021/09/09 22:33:18;;;;;;;32.63;10.00;;;;;;;18.65;57.01;100561.16;4673488;63;21105;-80
2021/09/09 22:38:24;;;;;;;19.25;8.58;;;;;;;18.56;57.25;100570.53;4684327;63;21225;-78
2021/09/09 22:43:30;;;;;;;22.22;8.88;;;;;;;18.51;57.22;100569.36;4677259;63;21194;-82
2021/09/09 22:48:36;;;;;;;22.87;9.13;;;;;;;18.35;57.28;100566.69;4672759;63;21684;-81
2021/09/09 22:53:41;;;;;;;20.68;9.05;;;;;;;18.14;57.66;100553.33;4674087;63;22140;-79
2021/09/09 22:58:47;;;;;;;14.47;7.37;;;;;;;17.99;58.00;100554.98;4675217;63;21109;-80
2021/09/09 23:03:54;;;;;;;13.93;7.90;;;;;;;17.85;58.25;100552.97;4695917;61;21177;-81
2021/09/09 23:08:59;;;;;;;9.80;6.17;;;;;;;17.71;58.54;100551.78;4736813;62;21136;-81
2021/09/09 23:14:05;;;;;;;19.10;6.93;;;;;;;17.60;58.87;100554.70;4737152;62;21179;-81
2021/09/09 23:19:11;;;;;;;17.50;7.63;;;;;;;17.59;59.35;100545.84;4737623;62;21188;-80
2021/09/09 23:24:17;;;;;;;12.23;7.27;;;;;;;17.58;59.50;100543.33;4737520;62;21249;-81
2021/09/09 23:29:23;;;;;;;14.50;7.07;;;;;;;17.57;59.59;100545.66;4737486;62;21724;-82